Time;durP1;ratioP1;P1;durP2;ratioP2;P2;SDS_P1;SDS_P2;PMS_P1;PMS_P2;Temp;Humidity;BMP_temperature;BMP_pressure;BME280_temperature;BME280_humidity;BME280_pressure;Samples;Min_cycle;Max_cycle;Signal;HPM_P1;HPM_P2
2021/03/29 00:01:48;;;;;;;10.30;5.10;;;9.00;99.90;;;;;;4995081;28;20255;-66
2021/03/29 00:04:13;;;;;;;10.50;5.30;;;9.00;99.90;;;;;;4994883;28;20239;-65
2021/03/29 00:06:41;;;;;;;14.77;4.77;;;9.10;99.90;;;;;;4995098;28;20209;-66
2021/03/29 00:09:08;;;;;;;10.90;5.10;;;9.10;99.90;;;;;;4995478;28;20180;-66
2021/03/29 00:11:35;;;;;;;13.70;5.30;;;9.20;99.90;;;;;;4994491;28;20185;-65
2021/03/29 00:14:02;;;;;;;8.43;5.33;;;9.10;99.90;;;;;;4995097;28;20184;-66
2021/03/29 00:16:29;;;;;;;11.40;5.83;;;9.20;99.90;;;;;;4993522;28;20654;-65
2021/03/29 00:18:55;;;;;;;15.87;6.00;;;9.20;99.90;;;;;;4995104;28;20196;-67
2021/03/29 00:21:21;;;;;;;13.07;5.93;;;9.20;99.90;;;;;;4994380;28;20188;-66
2021/03/29 00:23:47;;;;;;;11.80;5.83;;;9.30;99.90;;;;;;4994130;28;20189;-66
2021/03/29 00:26:13;;;;;;;12.70;5.83;;;9.20;99.90;;;;;;4994601;28;20212;-66
2021/03/29 00:28:39;;;;;;;15.13;5.57;;;9.30;99.90;;;;;;4994998;28;20181;-66
2021/03/29 00:31:06;;;;;;;12.93;5.80;;;9.30;99.90;;;;;;4994198;28;20208;-66
2021/03/29 00:33:33;;;;;;;13.30;6.23;;;9.30;99.90;;;;;;4994387;28;20532;-66
2021/03/29 00:36:00;;;;;;;12.87;6.23;;;9.30;99.90;;;;;;4994710;28;20176;-66
2021/03/29 00:38:26;;;;;;;13.23;7.77;;;9.30;99.90;;;;;;4994801;28;20177;-67
2021/03/29 00:40:55;;;;;;;14.10;7.47;;;9.30;99.90;;;;;;4994319;28;20185;-66
2021/03/29 00:43:35;;;;;;;10.73;6.50;;;9.30;99.90;;;;;;4994434;28;20613;-66
2021/03/29 00:46:03;;;;;;;14.07;6.80;;;9.20;99.90;;;;;;4994354;28;20255;-66
2021/03/29 00:48:32;;;;;;;13.43;6.73;;;9.20;99.90;;;;;;4993745;28;20753;-66
2021/03/29 00:51:18;;;;;;;10.43;6.00;;;9.10;99.90;;;;;;4993657;28;20219;-66
2021/03/29 00:53:47;;;;;;;12.20;6.33;;;9.00;99.90;;;;;;4993958;28;20784;-66
2021/03/29 00:56:14;;;;;;;15.63;7.70;;;8.90;99.90;;;;;;4994368;28;20258;-66
2021/03/29 00:58:42;;;;;;;11.73;7.03;;;8.80;99.90;;;;;;4994328;28;20183;-66
2021/03/29 01:01:19;;;;;;;14.90;8.57;;;8.70;99.90;;;;;;4992226;28;20192;-66
2021/03/29 01:03:48;;;;;;;14.37;7.37;;;8.70;99.90;;;;;;4993976;28;20235;-66
2021/03/29 01:06:16;;;;;;;18.07;7.50;;;8.60;99.90;;;;;;4993993;28;20288;-66
2021/03/29 01:08:46;;;;;;;17.17;7.47;;;8.50;99.90;;;;;;4994450;28;20647;-66
2021/03/29 01:11:15;;;;;;;8.90;6.83;;;8.40;99.90;;;;;;4993491;28;20187;-66
2021/03/29 01:13:57;;;;;;;14.30;7.33;;;8.30;99.90;;;;;;4993729;28;20247;-66
2021/03/29 01:16:25;;;;;;;11.57;6.93;;;8.20;99.90;;;;;;4974989;28;20188;-66
2021/03/29 01:18:55;;;;;;;13.17;7.40;;;8.20;99.90;;;;;;4974678;28;20539;-66
2021/03/29 01:21:37;;;;;;;12.03;6.67;;;8.10;99.90;;;;;;4993163;28;20557;-66
2021/03/29 01:24:10;;;;;;;14.30;7.40;;;8.00;99.90;;;;;;4992718;28;20454;-66
2021/03/29 01:26:41;;;;;;;16.50;6.87;;;8.00;99.90;;;;;;4993807;28;20213;-65
2021/03/29 01:29:08;;;;;;;11.50;6.40;;;8.00;99.90;;;;;;4993401;28;20275;-65
2021/03/29 01:31:34;;;;;;;12.83;6.60;;;8.00;99.90;;;;;;4993297;28;20176;-65
2021/03/29 01:34:01;;;;;;;10.60;6.40;;;8.00;99.90;;;;;;4993341;28;20247;-65
2021/03/29 01:36:29;;;;;;;12.87;6.47;;;8.00;99.90;;;;;;4993641;28;20181;-65
2021/03/29 01:38:56;;;;;;;13.17;7.23;;;8.10;99.90;;;;;;4993349;28;20697;-65
2021/03/29 01:41:22;;;;;;;11.37;6.83;;;8.10;99.90;;;;;;4992848;28;20180;-65
2021/03/29 01:43:48;;;;;;;17.93;6.53;;;8.10;99.90;;;;;;4993039;28;20235;-65
2021/03/29 01:46:15;;;;;;;12.40;6.37;;;8.10;99.90;;;;;;4993429;28;20223;-65
2021/03/29 01:48:42;;;;;;;14.03;6.63;;;8.10;99.90;;;;;;4993235;28;20185;-65
2021/03/29 01:51:08;;;;;;;13.80;6.43;;;8.10;99.90;;;;;;4992962;28;20545;-65
2021/03/29 01:53:34;;;;;;;14.27;5.70;;;8.10;99.90;;;;;;4993077;28;20279;-65
2021/03/29 01:56:00;;;;;;;13.07;6.83;;;8.10;99.90;;;;;;4993176;28;20177;-65
2021/03/29 01:58:26;;;;;;;8.20;5.93;;;8.10;99.90;;;;;;4993040;28;20196;-65
2021/03/29 02:00:58;;;;;;;14.03;7.00;;;8.10;99.90;;;;;;4992819;28;20709;-65
2021/03/29 02:03:24;;;;;;;13.93;6.83;;;8.10;99.90;;;;;;4991223;28;20185;-65
2021/03/29 02:05:51;;;;;;;13.30;6.60;;;8.10;99.90;;;;;;4992787;28;20300;-65
2021/03/29 02:08:18;;;;;;;16.13;6.77;;;8.00;99.90;;;;;;4993034;28;20658;-65
2021/03/29 02:10:45;;;;;;;11.57;6.03;;;8.00;99.90;;;;;;4992682;28;20207;-65
2021/03/29 02:13:16;;;;;;;14.80;6.30;;;8.00;99.90;;;;;;4992510;28;20207;-65
2021/03/29 02:15:44;;;;;;;14.23;6.77;;;8.00;99.90;;;;;;4992615;28;20251;-65
2021/03/29 02:18:18;;;;;;;13.67;5.73;;;7.90;99.90;;;;;;4992791;28;20538;-65
2021/03/29 02:20:45;;;;;;;14.03;5.70;;;7.90;99.90;;;;;;4992306;28;20251;-65
2021/03/29 02:23:11;;;;;;;15.40;6.43;;;7.90;99.90;;;;;;4990607;28;20181;-65
2021/03/29 02:25:37;;;;;;;13.93;6.33;;;7.90;99.90;;;;;;4992029;28;20753;-65
2021/03/29 02:28:05;;;;;;;17.60;7.00;;;7.80;99.90;;;;;;4992630;28;20212;-65
2021/03/29 02:30:36;;;;;;;13.33;7.33;;;7.70;99.90;;;;;;4992215;28;20492;-65
2021/03/29 02:33:04;;;;;;;17.37;6.33;;;7.60;99.90;;;;;;4992569;28;20260;-65
2021/03/29 02:35:30;;;;;;;13.37;6.63;;;7.50;99.90;;;;;;4991968;28;20208;-65
2021/03/29 02:37:57;;;;;;;13.67;6.50;;;7.40;99.90;;;;;;4992503;28;20185;-65
2021/03/29 02:40:25;;;;;;;12.13;6.10;;;7.40;99.90;;;;;;4991943;28;20638;-65
2021/03/29 02:42:54;;;;;;;14.37;6.90;;;7.30;99.90;;;;;;4992564;28;20211;-65
2021/03/29 02:45:22;;;;;;;10.67;6.20;;;7.40;99.90;;;;;;4992634;28;20228;-65
2021/03/29 02:47:48;;;;;;;11.43;6.37;;;7.30;99.90;;;;;;4992312;28;20169;-65
2021/03/29 02:50:23;;;;;;;11.80;6.50;;;7.30;99.90;;;;;;4991778;28;20182;-65
2021/03/29 02:52:56;;;;;;;15.60;7.03;;;7.20;99.90;;;;;;4992037;28;20180;-65
2021/03/29 02:55:24;;;;;;;12.80;6.20;;;7.20;99.90;;;;;;4992100;28;20200;-65
2021/03/29 02:57:52;;;;;;;16.10;7.67;;;7.20;99.90;;;;;;4992074;28;20177;-65
2021/03/29 03:00:24;;;;;;;12.83;5.50;;;7.30;99.90;;;;;;4992176;28;20267;-65
2021/03/29 03:02:53;;;;;;;11.03;6.27;;;7.30;99.90;;;;;;4992076;28;20319;-65
2021/03/29 03:05:21;;;;;;;8.83;5.77;;;7.30;99.90;;;;;;4992689;28;20228;-66
2021/03/29 03:07:47;;;;;;;12.73;5.97;;;7.30;99.90;;;;;;4991758;28;20196;-66
2021/03/29 03:10:14;;;;;;;17.43;6.13;;;7.30;99.90;;;;;;4992097;28;20308;-66
2021/03/29 03:12:45;;;;;;;17.67;5.93;;;7.30;99.90;;;;;;4998089;28;20173;-66
2021/03/29 03:15:16;;;;;;;18.77;6.70;;;7.30;99.90;;;;;;4998291;28;20208;-66
2021/03/29 03:17:41;;;;;;;13.17;5.83;;;7.30;99.90;;;;;;4998573;28;20177;-65
2021/03/29 03:20:11;;;;;;;11.03;6.20;;;7.30;99.90;;;;;;4997983;28;20184;-66
2021/03/29 03:22:47;;;;;;;17.23;6.53;;;7.30;99.90;;;;;;4998379;28;20694;-65
2021/03/29 03:25:33;;;;;;;9.70;5.43;;;7.30;99.90;;;;;;4997595;28;20204;-66
2021/03/29 03:28:01;;;;;;;11.23;5.93;;;7.30;99.90;;;;;;4998138;28;20184;-66
2021/03/29 03:30:32;;;;;;;12.57;5.67;;;7.30;99.90;;;;;;4998328;28;20172;-65
2021/03/29 03:32:58;;;;;;;12.77;6.23;;;7.30;99.90;;;;;;4998195;28;20185;-66
2021/03/29 03:35:26;;;;;;;12.73;5.80;;;7.30;99.90;;;;;;4997052;28;20204;-66
2021/03/29 03:38:08;;;;;;;9.13;5.67;;;7.30;99.90;;;;;;4998057;28;20338;-65
2021/03/29 03:40:36;;;;;;;12.57;6.50;;;7.30;99.90;;;;;;4998148;28;20270;-66
2021/03/29 03:43:05;;;;;;;11.67;5.77;;;7.30;99.90;;;;;;4998015;28;20275;-66
2021/03/29 03:45:44;;;;;;;10.13;6.03;;;7.20;99.90;;;;;;4996854;28;20587;-65
2021/03/29 03:48:12;;;;;;;13.77;6.63;;;7.20;99.90;;;;;;4998103;28;20176;-66
2021/03/29 03:50:39;;;;;;;12.27;5.87;;;7.20;99.90;;;;;;4998026;28;20189;-66
2021/03/29 03:53:06;;;;;;;12.53;6.23;;;7.10;99.90;;;;;;4998327;28;20177;-66
2021/03/29 03:55:33;;;;;;;12.70;6.03;;;7.10;99.90;;;;;;4997843;28;20212;-65
2021/03/29 03:58:00;;;;;;;11.10;5.80;;;7.00;99.90;;;;;;4998247;28;20552;-66
2021/03/29 04:00:26;;;;;;;14.33;6.00;;;6.90;99.90;;;;;;4997842;28;20187;-65
2021/03/29 04:02:52;;;;;;;18.53;6.33;;;6.90;99.90;;;;;;4998164;28;20259;-66
2021/03/29 04:05:18;;;;;;;17.07;6.37;;;6.80;99.90;;;;;;4998040;28;20275;-66
2021/03/29 04:07:49;;;;;;;21.83;6.50;;;6.80;99.90;;;;;;4998097;28;20184;-65
2021/03/29 04:12:43;;;;;;;8.33;5.90;;;6.70;99.90;;;;;;4998085;28;20625;-65
2021/03/29 04:15:09;;;;;;;10.83;5.80;;;6.70;99.90;;;;;;4997689;28;20291;-65
2021/03/29 04:17:35;;;;;;;12.97;6.13;;;6.70;99.90;;;;;;4997684;28;20220;-65
2021/03/29 04:20:01;;;;;;;9.53;6.03;;;6.70;99.90;;;;;;4997500;28;20216;-65
2021/03/29 04:22:26;;;;;;;11.50;6.20;;;6.70;99.90;;;;;;4995433;28;20193;-65
2021/03/29 04:24:52;;;;;;;12.73;6.33;;;6.60;99.90;;;;;;4993328;28;20204;-65
2021/03/29 04:27:18;;;;;;;16.10;7.07;;;6.60;99.90;;;;;;4994898;28;20181;-65
2021/03/29 04:29:43;;;;;;;9.83;5.97;;;6.50;99.90;;;;;;4994382;28;20177;-65
2021/03/29 04:32:09;;;;;;;10.73;5.93;;;6.50;99.90;;;;;;4993671;28;20172;-65
2021/03/29 04:34:35;;;;;;;12.37;5.77;;;6.50;99.90;;;;;;4993227;28;20854;-65
2021/03/29 04:37:01;;;;;;;16.73;6.83;;;6.50;99.90;;;;;;4993428;28;20259;-65
2021/03/29 04:39:27;;;;;;;14.67;6.70;;;6.50;99.90;;;;;;4994739;28;20173;-65
2021/03/29 04:41:52;;;;;;;14.77;6.67;;;6.50;99.90;;;;;;4994088;28;20181;-65
2021/03/29 04:44:18;;;;;;;13.33;5.73;;;6.40;99.90;;;;;;4994311;28;20232;-65
2021/03/29 04:46:43;;;;;;;11.27;4.83;;;6.40;99.90;;;;;;4993740;28;20208;-65
2021/03/29 04:49:09;;;;;;;11.40;5.50;;;6.40;99.90;;;;;;4993029;28;20177;-65
2021/03/29 04:51:35;;;;;;;15.87;6.70;;;6.50;99.90;;;;;;4994071;28;20188;-65
2021/03/29 04:54:00;;;;;;;14.87;6.00;;;6.60;99.90;;;;;;4992737;28;20193;-65
2021/03/29 04:56:26;;;;;;;13.03;5.33;;;6.50;99.90;;;;;;4993265;28;20184;-65
2021/03/29 04:58:52;;;;;;;16.37;6.53;;;6.60;99.90;;;;;;4994363;28;20674;-65
2021/03/29 05:01:17;;;;;;;13.53;5.80;;;6.60;99.90;;;;;;4993960;28;20520;-65
2021/03/29 05:03:43;;;;;;;10.83;5.20;;;6.60;99.90;;;;;;4993721;28;20204;-65
2021/03/29 05:06:08;;;;;;;12.83;5.33;;;6.60;99.90;;;;;;4994115;28;20627;-65
2021/03/29 05:08:34;;;;;;;13.73;6.47;;;6.60;99.90;;;;;;4993892;28;20180;-65
2021/03/29 05:11:00;;;;;;;9.80;5.00;;;6.60;99.90;;;;;;4993685;28;20173;-65
2021/03/29 05:13:25;;;;;;;16.13;5.80;;;6.60;99.90;;;;;;4993883;28;20196;-65
2021/03/29 05:15:51;;;;;;;12.07;5.20;;;6.60;99.90;;;;;;4993806;28;20243;-65
2021/03/29 05:18:16;;;;;;;12.53;6.10;;;6.50;99.90;;;;;;4993727;28;20187;-65
2021/03/29 05:20:42;;;;;;;14.83;6.07;;;6.50;99.90;;;;;;4992428;28;20363;-65
2021/03/29 05:23:07;;;;;;;11.33;5.80;;;6.50;99.90;;;;;;4993432;28;20180;-65
2021/03/29 05:25:33;;;;;;;12.87;5.70;;;6.40;99.90;;;;;;4993718;28;20262;-65
2021/03/29 05:27:59;;;;;;;13.50;5.73;;;6.40;99.90;;;;;;4993772;28;20177;-65
2021/03/29 05:30:24;;;;;;;10.67;6.13;;;6.50;99.90;;;;;;4993482;28;20350;-65
2021/03/29 05:32:50;;;;;;;11.07;4.97;;;6.50;99.90;;;;;;4992634;28;20184;-64
2021/03/29 05:35:16;;;;;;;14.33;5.40;;;6.50;99.90;;;;;;4993197;28;20197;-64
2021/03/29 05:37:41;;;;;;;9.23;4.90;;;6.50;99.90;;;;;;4993194;28;20373;-64
2021/03/29 05:40:08;;;;;;;12.37;5.53;;;6.60;99.90;;;;;;4993232;28;20173;-64
2021/03/29 05:42:34;;;;;;;8.23;5.20;;;6.70;99.90;;;;;;4991484;28;20192;-65
2021/03/29 05:45:08;;;;;;;7.73;4.50;;;6.70;99.90;;;;;;4992813;28;20573;-65
2021/03/29 05:47:35;;;;;;;12.63;5.73;;;6.70;99.90;;;;;;4993309;28;20222;-66
2021/03/29 05:50:04;;;;;;;6.03;4.70;;;6.80;99.90;;;;;;4992549;28;20173;-65
2021/03/29 05:52:30;;;;;;;11.70;4.87;;;6.90;99.90;;;;;;4993153;28;20180;-65
2021/03/29 05:54:59;;;;;;;8.40;4.50;;;6.90;99.90;;;;;;4993096;28;20196;-65
2021/03/29 05:57:25;;;;;;;13.50;5.37;;;6.90;99.90;;;;;;4992907;28;20177;-65
2021/03/29 05:59:51;;;;;;;10.83;4.57;;;7.00;99.90;;;;;;4991490;28;20176;-67
2021/03/29 06:02:29;;;;;;;11.47;5.33;;;7.00;99.90;;;;;;4992629;28;20177;-66
2021/03/29 06:04:54;;;;;;;17.67;4.53;;;7.10;99.90;;;;;;4992718;28;20208;-66
2021/03/29 06:07:24;;;;;;;10.07;5.00;;;7.20;99.90;;;;;;4992862;28;20203;-65
2021/03/29 06:09:52;;;;;;;13.03;5.37;;;7.20;99.90;;;;;;4992658;28;20638;-66
2021/03/29 06:12:19;;;;;;;14.17;5.00;;;7.40;99.90;;;;;;4991415;28;20592;-66
2021/03/29 06:14:46;;;;;;;11.90;4.60;;;7.40;99.90;;;;;;4992438;28;20564;-66
2021/03/29 06:17:21;;;;;;;10.43;5.00;;;7.50;99.90;;;;;;4992517;28;20283;-66
2021/03/29 06:19:52;;;;;;;18.40;5.50;;;7.60;99.90;;;;;;4992566;28;20167;-65
2021/03/29 06:22:35;;;;;;;13.37;6.43;;;7.70;99.90;;;;;;4992362;28;20572;-66
2021/03/29 06:25:17;;;;;;;15.03;5.63;;;7.70;99.90;;;;;;4992539;28;20204;-65
2021/03/29 06:27:47;;;;;;;14.67;5.40;;;7.90;99.90;;;;;;4992339;28;20276;-65
2021/03/29 06:30:36;;;;;;;8.33;4.53;;;8.00;99.90;;;;;;4990855;28;20169;-66
2021/03/29 06:33:05;;;;;;;17.10;5.20;;;8.20;99.90;;;;;;4992222;28;20235;-66
2021/03/29 06:35:43;;;;;;;8.40;4.90;;;8.30;99.90;;;;;;4992441;28;20193;-66
2021/03/29 06:38:09;;;;;;;16.07;4.97;;;8.50;99.90;;;;;;4992014;28;20558;-66
2021/03/29 06:40:37;;;;;;;13.57;5.30;;;8.70;99.90;;;;;;4991844;28;20173;-66
2021/03/29 06:43:17;;;;;;;12.57;5.33;;;9.00;99.90;;;;;;4992061;28;20464;-66
2021/03/29 06:45:43;;;;;;;11.43;5.10;;;9.50;99.90;;;;;;4991447;28;20670;-66
2021/03/29 06:48:20;;;;;;;18.60;5.30;;;10.00;99.90;;;;;;4992359;28;20529;-66
2021/03/29 06:50:46;;;;;;;9.60;4.40;;;10.50;99.90;;;;;;4991769;28;20177;-65
2021/03/29 06:53:24;;;;;;;18.10;4.50;;;11.00;99.90;;;;;;4992060;28;20308;-65
2021/03/29 06:55:52;;;;;;;12.77;4.77;;;11.50;99.90;;;;;;4991945;28;20181;-66
2021/03/29 06:58:24;;;;;;;11.87;3.80;;;11.80;99.90;;;;;;4990701;28;20181;-66
2021/03/29 07:00:54;;;;;;;9.00;4.37;;;12.20;99.90;;;;;;4991754;28;20664;-66
2021/03/29 07:03:20;;;;;;;9.83;3.90;;;12.50;99.90;;;;;;4991200;28;20176;-66
2021/03/29 07:05:48;;;;;;;14.10;4.10;;;12.70;99.90;;;;;;4990938;28;20208;-65
2021/03/29 07:08:13;;;;;;;9.63;3.90;;;12.90;99.90;;;;;;4991938;28;20185;-66
2021/03/29 07:10:39;;;;;;;7.83;3.90;;;13.20;99.90;;;;;;4991870;28;20541;-66
2021/03/29 07:13:08;;;;;;;9.40;3.30;;;13.40;99.90;;;;;;4990790;28;20181;-66
2021/03/29 07:15:35;;;;;;;13.73;4.97;;;13.60;99.90;;;;;;4990891;28;20291;-65
2021/03/29 07:18:02;;;;;;;11.37;4.40;;;13.80;99.90;;;;;;4991112;28;20733;-66
2021/03/29 07:20:30;;;;;;;11.67;4.00;;;13.90;99.90;;;;;;4991685;28;20169;-65
2021/03/29 07:22:56;;;;;;;5.13;3.50;;;14.10;99.90;;;;;;4991921;28;20173;-66
2021/03/29 07:25:30;;;;;;;10.10;4.03;;;14.40;99.90;;;;;;4991681;28;20205;-65
2021/03/29 07:27:58;;;;;;;13.33;4.00;;;14.60;99.90;;;;;;4991801;28;20169;-66
2021/03/29 07:30:52;;;;;;;9.73;3.87;;;15.00;99.90;;;;;;4991545;28;20169;-65
2021/03/29 07:33:21;;;;;;;7.37;4.07;;;15.20;99.90;;;;;;4991943;28;20256;-66
2021/03/29 07:35:49;;;;;;;10.17;4.00;;;15.40;99.90;;;;;;4991728;28;20184;-65
2021/03/29 07:38:19;;;;;;;8.73;3.57;;;15.60;99.90;;;;;;4991662;28;20181;-65
2021/03/29 07:40:50;;;;;;;6.40;3.07;;;15.80;99.90;;;;;;4991404;28;20177;-67
2021/03/29 07:43:19;;;;;;;7.47;3.43;;;16.00;99.90;;;;;;4991637;28;20593;-66
2021/03/29 07:46:03;;;;;;;8.70;4.03;;;16.10;99.90;;;;;;4991558;28;20650;-66
2021/03/29 07:48:34;;;;;;;6.93;3.23;;;16.10;99.90;;;;;;4991839;28;20169;-67
2021/03/29 07:51:02;;;;;;;10.53;3.63;;;16.30;99.90;;;;;;4991294;28;20647;-66
2021/03/29 07:53:49;;;;;;;9.37;3.27;;;16.50;99.90;;;;;;4991660;28;20555;-65
2021/03/29 07:56:30;;;;;;;8.37;2.97;;;16.90;99.90;;;;;;4991552;28;20184;-66
2021/03/29 07:58:56;;;;;;;5.67;2.93;;;17.20;99.90;;;;;;4993602;28;20259;-66
2021/03/29 08:01:22;;;;;;;8.60;2.90;;;17.40;99.90;;;;;;4995143;28;20180;-66
2021/03/29 08:03:53;;;;;;;8.80;2.80;;;17.50;99.90;;;;;;4995000;28;20235;-66
2021/03/29 08:06:39;;;;;;;9.70;2.70;;;17.50;99.90;;;;;;4993806;28;20208;-66
2021/03/29 08:09:12;;;;;;;7.43;2.70;;;17.60;99.90;;;;;;4993800;28;20254;-65
2021/03/29 08:11:51;;;;;;;11.33;3.50;;;17.60;99.90;;;;;;4994907;28;20196;-66
2021/03/29 08:14:35;;;;;;;4.33;2.43;;;17.60;99.90;;;;;;4993656;28;20748;-66
2021/03/29 08:17:38;;;;;;;9.73;3.03;;;17.70;99.90;;;;;;4992996;28;20179;-66
2021/03/29 08:20:34;;;;;;;9.03;3.57;;;17.90;99.90;;;;;;4994481;28;20172;-67
2021/03/29 08:23:26;;;;;;;8.13;3.17;;;18.00;99.90;;;;;;4994940;28;20486;-66
2021/03/29 08:26:10;;;;;;;7.78;2.50;;;18.30;99.90;;;;;;4994821;28;20347;-67
2021/03/29 08:29:06;;;;;;;8.55;2.78;;;18.70;99.90;;;;;;4994803;28;20214;-66
2021/03/29 08:32:00;;;;;;;8.50;2.70;;;19.20;99.90;;;;;;4994539;28;20204;-66
2021/03/29 08:34:27;;;;;;;7.05;2.83;;;19.70;99.90;;;;;;4993209;28;20263;-66
2021/03/29 08:36:59;;;;;;;6.28;3.10;;;19.90;99.90;;;;;;4994664;28;20666;-66
2021/03/29 08:39:24;;;;;;;7.28;2.50;;;20.10;99.90;;;;;;4993260;28;20271;-67
2021/03/29 08:41:54;;;;;;;4.38;2.08;;;20.30;99.90;;;;;;4994098;28;20260;-66
2021/03/29 08:44:19;;;;;;;5.47;2.30;;;20.20;99.90;;;;;;4994284;28;20255;-66
2021/03/29 08:46:47;;;;;;;6.45;2.45;;;20.30;99.90;;;;;;4994523;28;20200;-66
2021/03/29 08:49:13;;;;;;;5.13;2.13;;;20.20;99.90;;;;;;4994257;28;20169;-66
2021/03/29 08:51:39;;;;;;;6.38;2.80;;;20.40;99.90;;;;;;4994237;28;20200;-67
2021/03/29 08:54:09;;;;;;;8.00;2.25;;;20.50;99.90;;;;;;4992695;28;20201;-67
2021/03/29 08:56:40;;;;;;;8.43;2.10;;;20.50;99.90;;;;;;4994729;28;20654;-66
2021/03/29 08:59:07;;;;;;;4.82;1.90;;;20.50;99.90;;;;;;4994201;28;20614;-66
2021/03/29 09:01:33;;;;;;;10.18;2.97;;;20.70;99.90;;;;;;4994005;28;20680;-66
2021/03/29 09:04:03;;;;;;;7.13;2.58;;;20.60;99.90;;;;;;4993623;28;20217;-67
2021/03/29 09:06:29;;;;;;;8.13;2.40;;;20.60;99.90;;;;;;4993971;28;20254;-66
2021/03/29 09:08:56;;;;;;;5.90;2.05;;;20.80;99.90;;;;;;4993313;28;20161;-67
2021/03/29 09:11:22;;;;;;;9.30;2.47;;;20.90;99.90;;;;;;4993718;28;20169;-66
2021/03/29 09:13:48;;;;;;;7.43;2.50;;;20.90;99.90;;;;;;4993425;28;20197;-66
2021/03/29 09:16:13;;;;;;;5.88;2.17;;;20.50;99.90;;;;;;4993785;28;20188;-66
2021/03/29 09:18:39;;;;;;;7.93;2.35;;;20.50;99.90;;;;;;4992836;28;20188;-67
2021/03/29 09:21:06;;;;;;;8.75;2.30;;;20.90;99.90;;;;;;4993463;28;20884;-67
2021/03/29 09:23:32;;;;;;;7.40;2.20;;;21.40;99.90;;;;;;4993530;28;20227;-67
2021/03/29 09:26:01;;;;;;;4.00;2.15;;;21.50;99.90;;;;;;4993217;28;20208;-67
2021/03/29 09:31:08;;;;;;;8.05;2.15;;;21.80;99.90;;;;;;4993211;28;20181;-66
2021/03/29 09:33:34;;;;;;;7.25;2.20;;;22.20;99.90;;;;;;4993392;28;20208;-66
2021/03/29 09:36:14;;;;;;;4.63;1.80;;;22.40;99.90;;;;;;4993088;28;20184;-67
2021/03/29 09:38:43;;;;;;;6.05;2.03;;;22.30;99.60;;;;;;4993762;28;20598;-66
2021/03/29 09:41:33;;;;;;;3.42;2.03;;;22.20;97.70;;;;;;4992857;28;20196;-66
2021/03/29 09:44:04;;;;;;;7.38;2.08;;;22.00;97.50;;;;;;4993224;28;20279;-67
2021/03/29 09:46:32;;;;;;;4.82;2.10;;;21.90;98.50;;;;;;4993130;28;20208;-67
2021/03/29 09:49:15;;;;;;;6.95;2.33;;;22.30;98.30;;;;;;4993773;28;20173;-67
2021/03/29 09:51:43;;;;;;;7.80;2.10;;;22.50;96.70;;;;;;4992819;28;20184;-67
2021/03/29 09:54:44;;;;;;;3.75;1.90;;;22.30;95.80;;;;;;4992735;28;20264;-67
2021/03/29 09:57:22;;;;;;;6.55;1.95;;;22.50;94.20;;;;;;4989287;28;20196;-66
2021/03/29 09:59:49;;;;;;;4.57;1.63;;;22.50;95.30;;;;;;4992737;28;20196;-66
2021/03/29 10:02:28;;;;;;;6.93;1.98;;;22.80;94.90;;;;;;4992788;28;20188;-66
2021/03/29 10:05:10;;;;;;;3.47;1.67;;;23.10;92.80;;;;;;4992511;28;20567;-66
2021/03/29 10:07:48;;;;;;;8.60;1.80;;;23.00;92.30;;;;;;4993204;28;20248;-66
2021/03/29 10:10:13;;;;;;;4.20;1.73;;;22.90;92.30;;;;;;4992265;28;20207;-66
2021/03/29 10:12:39;;;;;;;3.30;1.77;;;22.70;91.10;;;;;;4992867;28;20173;-66
2021/03/29 10:15:09;;;;;;;6.65;2.22;;;22.70;90.60;;;;;;4992349;28;20209;-66
2021/03/29 10:17:35;;;;;;;2.03;1.70;;;22.50;87.90;;;;;;4992822;28;20242;-66
2021/03/29 10:20:09;;;;;;;3.78;1.73;;;22.50;89.40;;;;;;4991782;28;20658;-66
2021/03/29 10:22:35;;;;;;;4.50;1.75;;;22.60;84.70;;;;;;4992226;28;20180;-66
2021/03/29 10:25:02;;;;;;;6.15;1.70;;;22.30;84.20;;;;;;4992285;28;20207;-66
2021/03/29 10:27:52;;;;;;;4.40;1.80;;;22.20;87.70;;;;;;4992782;28;20198;-66
2021/03/29 10:30:18;;;;;;;3.28;1.38;;;22.20;85.40;;;;;;4991962;28;20239;-67
2021/03/29 10:32:43;;;;;;;5.07;2.10;;;22.40;87.70;;;;;;4992675;28;20173;-67
2021/03/29 10:35:10;;;;;;;3.58;1.60;;;22.50;81.30;;;;;;4992152;28;20617;-67
2021/03/29 10:37:36;;;;;;;5.30;1.63;;;22.40;81.00;;;;;;4992214;28;20179;-66
2021/03/29 10:40:04;;;;;;;5.82;1.95;;;22.40;79.40;;;;;;4991922;28;20181;-66
2021/03/29 10:42:33;;;;;;;5.43;2.13;;;22.40;80.50;;;;;;4992235;28;20597;-66
2021/03/29 10:44:58;;;;;;;5.80;1.65;;;22.70;81.50;;;;;;4988793;28;20570;-66
2021/03/29 10:47:24;;;;;;;7.55;2.53;;;22.90;82.60;;;;;;4992093;28;20165;-66
2021/03/29 10:49:51;;;;;;;5.95;2.00;;;23.30;77.30;;;;;;4992020;28;20184;-66
2021/03/29 10:52:17;;;;;;;3.97;1.83;;;23.10;76.30;;;;;;4992067;28;20539;-66
2021/03/29 10:54:43;;;;;;;3.60;2.30;;;22.90;74.70;;;;;;4991926;28;20196;-66
2021/03/29 10:57:09;;;;;;;2.97;2.65;;;22.60;77.80;;;;;;4991855;28;20603;-66
2021/03/29 10:59:35;;;;;;;2.75;2.10;;;22.50;78.50;;;;;;4991843;28;20188;-66
2021/03/29 11:02:01;;;;;;;4.15;1.90;;;22.40;78.10;;;;;;4991531;28;20171;-66
2021/03/29 11:04:26;;;;;;;2.30;1.58;;;22.70;79.00;;;;;;4991804;28;20216;-67
2021/03/29 11:06:53;;;;;;;3.60;1.63;;;22.70;73.60;;;;;;4992177;28;20216;-66
2021/03/29 11:09:19;;;;;;;3.92;1.85;;;22.30;73.80;;;;;;4991791;28;20188;-67
2021/03/29 11:11:44;;;;;;;4.95;2.03;;;22.50;77.70;;;;;;4991607;28;20180;-67
2021/03/29 11:14:10;;;;;;;4.30;1.75;;;22.80;77.30;;;;;;4991199;28;20713;-66
2021/03/29 11:16:36;;;;;;;4.68;2.30;;;22.90;74.70;;;;;;4991496;28;20569;-66
2021/03/29 11:19:02;;;;;;;3.72;1.58;;;23.10;74.80;;;;;;4991822;28;20180;-67
2021/03/29 11:21:29;;;;;;;4.45;1.65;;;23.30;75.10;;;;;;4991767;28;20201;-67
2021/03/29 11:23:56;;;;;;;4.60;1.85;;;23.50;75.00;;;;;;4990823;28;20599;-66
2021/03/29 11:26:21;;;;;;;6.07;2.13;;;23.40;75.50;;;;;;4992020;28;20196;-67
2021/03/29 11:28:47;;;;;;;4.00;1.85;;;23.40;74.00;;;;;;4991897;28;20208;-67
2021/03/29 11:31:13;;;;;;;3.15;1.73;;;23.40;75.40;;;;;;4991431;28;20251;-67
2021/03/29 11:33:39;;;;;;;6.20;1.65;;;23.70;77.80;;;;;;4995213;28;20740;-67
2021/03/29 11:36:05;;;;;;;4.57;2.53;;;23.80;72.50;;;;;;4995652;28;20180;-67
2021/03/29 11:38:31;;;;;;;5.00;2.10;;;23.60;71.70;;;;;;4995824;28;20184;-66
2021/03/29 11:40:57;;;;;;;4.28;1.73;;;23.30;70.80;;;;;;4995634;28;20177;-67
2021/03/29 11:43:22;;;;;;;4.55;1.90;;;23.40;73.90;;;;;;4995776;28;20177;-67
2021/03/29 11:45:48;;;;;;;2.50;1.92;;;23.50;74.80;;;;;;4995507;28;20339;-66
2021/03/29 11:48:14;;;;;;;6.50;2.30;;;23.70;74.00;;;;;;4995656;28;20200;-66
2021/03/29 11:50:40;;;;;;;2.78;2.05;;;23.40;73.80;;;;;;4995316;28;20173;-67
2021/03/29 11:53:05;;;;;;;4.72;1.70;;;23.00;71.70;;;;;;4995627;28;20165;-66
2021/03/29 11:55:31;;;;;;;2.92;1.38;;;23.00;71.20;;;;;;4995454;28;20239;-66
2021/03/29 11:57:57;;;;;;;3.08;2.00;;;23.20;72.40;;;;;;4995264;28;20510;-66
2021/03/29 12:00:36;;;;;;;4.00;1.92;;;23.30;71.60;;;;;;4995043;28;20196;-67
2021/03/29 12:03:15;;;;;;;5.05;1.60;;;23.50;72.40;;;;;;4995267;28;20176;-66
2021/03/29 12:06:26;;;;;;;4.63;1.95;;;23.50;71.00;;;;;;4995602;28;20205;-66
2021/03/29 12:08:39;;;;;;;4.53;1.92;;;23.40;68.60;;;;;;4997350;28;20698;-67
2021/03/29 12:13:52;;;;;;;4.18;2.33;;;23.70;73.10;;;;;;4995269;28;20251;-66
2021/03/29 12:16:20;;;;;;;2.72;1.77;;;23.50;71.20;;;;;;4995224;28;20180;-67
2021/03/29 12:21:20;;;;;;;2.28;1.52;;;23.50;67.40;;;;;;4994683;28;20216;-67
2021/03/29 12:23:52;;;;;;;5.40;2.17;;;23.10;66.20;;;;;;4994988;28;20184;-66
2021/03/29 12:26:22;;;;;;;4.93;1.92;;;22.90;69.60;;;;;;4993439;28;20682;-66
2021/03/29 12:28:51;;;;;;;4.18;1.75;;;23.10;66.40;;;;;;4994901;28;20175;-66
2021/03/29 12:31:17;;;;;;;4.68;2.00;;;23.20;67.40;;;;;;4992963;28;20175;-67
2021/03/29 12:33:43;;;;;;;4.88;1.80;;;23.30;67.50;;;;;;4994700;28;20189;-67
2021/03/29 12:36:10;;;;;;;6.07;1.63;;;23.60;66.70;;;;;;4994336;28;20235;-67
2021/03/29 12:38:39;;;;;;;3.10;1.80;;;23.80;67.10;;;;;;4994758;28;20181;-66
2021/03/29 12:41:06;;;;;;;5.57;2.13;;;23.70;64.30;;;;;;4994420;28;20179;-67
2021/03/29 12:44:15;;;;;;;5.53;1.95;;;23.60;66.00;;;;;;4993737;28;20546;-66
2021/03/29 12:46:21;;;;;;;5.88;1.85;;;23.90;66.50;;;;;;4996360;28;20244;-66
2021/03/29 12:48:47;;;;;;;4.55;1.80;;;23.80;60.70;;;;;;4994585;28;20575;-66
2021/03/29 12:51:14;;;;;;;4.07;1.70;;;23.60;59.20;;;;;;4992887;28;20176;-66
2021/03/29 12:53:42;;;;;;;1.92;1.40;;;23.70;59.80;;;;;;4994429;28;20205;-66
2021/03/29 12:56:08;;;;;;;3.75;1.83;;;23.90;58.70;;;;;;4994202;28;20202;-66
2021/03/29 12:58:38;;;;;;;2.47;1.80;;;24.20;60.20;;;;;;4994343;28;20173;-67
2021/03/29 13:01:08;;;;;;;4.05;2.00;;;24.30;60.80;;;;;;4993970;28;20258;-67
2021/03/29 13:03:40;;;;;;;2.00;1.70;;;24.00;57.30;;;;;;4994254;28;20713;-66
2021/03/29 13:06:16;;;;;;;2.00;1.40;;;24.00;56.60;;;;;;4993868;28;20200;-66
2021/03/29 13:08:43;;;;;;;4.03;1.80;;;23.80;54.70;;;;;;4994435;28;20523;-66
2021/03/29 13:13:39;;;;;;;2.10;1.80;;;23.40;56.50;;;;;;4994263;28;20521;-66